createdAt,value
2018-08-17T00:00:47.924Z,229.68
2018-08-17T00:03:18.316Z,225.00
2018-08-17T00:05:48.644Z,230.57
2018-08-17T00:08:18.868Z,225.40
2018-08-17T00:10:49.147Z,235.32
2018-08-17T00:13:19.578Z,227.25
2018-08-17T00:15:49.940Z,230.60
2018-08-17T00:18:20.336Z,233.50
2018-08-17T00:20:50.744Z,226.45
2018-08-17T00:23:21.213Z,229.70
2018-08-17T00:25:51.565Z,228.62
2018-08-17T00:28:21.992Z,228.90
2018-08-17T00:30:52.749Z,222.78
2018-08-17T00:33:23.048Z,228.58
2018-08-17T00:35:53.605Z,228.27
2018-08-17T00:38:23.876Z,224.58
2018-08-17T00:40:54.304Z,221.47
2018-08-17T00:43:24.600Z,228.22
2018-08-17T00:45:54.919Z,226.35
2018-08-17T00:48:25.348Z,227.13
2018-08-17T00:50:55.725Z,224.90
2018-08-17T00:53:26.067Z,223.55
2018-08-17T00:55:56.414Z,225.10
2018-08-17T00:58:26.847Z,227.15
2018-08-17T01:00:57.260Z,231.25
2018-08-17T01:03:28.872Z,227.55
2018-08-17T01:05:59.348Z,221.82
2018-08-17T01:08:29.552Z,220.95
2018-08-17T01:10:59.836Z,226.10
2018-08-17T01:13:30.225Z,222.15
2018-08-17T01:16:00.613Z,228.00
2018-08-17T01:18:31.180Z,229.90
2018-08-17T01:21:01.697Z,226.12
2018-08-17T01:23:33.440Z,222.78
2018-08-17T01:26:04.428Z,218.22
2018-08-17T01:28:35.170Z,226.95
2018-08-17T01:31:05.683Z,220.90
2018-08-17T01:33:35.895Z,222.80
2018-08-17T01:36:06.417Z,221.15
2018-08-17T01:38:36.942Z,221.60
2018-08-17T01:41:07.229Z,219.47
2018-08-17T01:43:37.507Z,220.93
2018-08-17T01:46:07.705Z,219.30
2018-08-17T01:48:38.095Z,217.03
2018-08-17T01:51:08.253Z,221.47
2018-08-17T01:53:38.510Z,221.82
2018-08-17T01:56:08.977Z,218.57
2018-08-17T01:58:39.856Z,221.60
2018-08-17T02:01:10.203Z,219.45
2018-08-17T02:03:40.859Z,222.75
2018-08-17T02:06:11.116Z,222.50
2018-08-17T02:08:42.067Z,222.65
2018-08-17T02:11:12.357Z,219.65
2018-08-17T02:13:43.243Z,224.45
2018-08-17T02:16:13.469Z,218.80
2018-08-17T02:18:43.859Z,216.75
2018-08-17T02:21:14.227Z,220.37
2018-08-17T02:23:44.658Z,222.27
2018-08-17T02:26:15.048Z,215.90
2018-08-17T02:28:45.394Z,219.87
2018-08-17T02:31:15.728Z,221.90
2018-08-17T02:33:46.295Z,222.22
2018-08-17T02:36:18.108Z,221.72
2018-08-17T02:38:48.322Z,219.30
2018-08-17T02:41:18.820Z,214.30
2018-08-17T02:43:49.491Z,218.05
2018-08-17T02:46:19.956Z,215.60
2018-08-17T02:48:50.361Z,218.40
2018-08-17T02:51:20.559Z,224.27
2018-08-17T02:53:55.368Z,229.35
2018-08-17T02:56:25.708Z,222.75
2018-08-17T02:58:58.253Z,220.67
2018-08-17T03:01:30.417Z,222.07
2018-08-17T03:04:01.045Z,221.40
2018-08-17T03:06:33.510Z,222.95
2018-08-17T03:09:04.469Z,225.10
2018-08-17T03:11:34.977Z,225.93
2018-08-17T03:14:05.959Z,216.93
2018-08-17T03:16:36.729Z,213.70
2018-08-17T03:19:07.184Z,217.18
2018-08-17T03:21:37.431Z,222.55
2018-08-17T03:24:08.116Z,216.10
2018-08-17T03:26:38.728Z,211.97
2018-08-17T03:29:09.056Z,216.02
2018-08-17T03:31:39.486Z,213.50
2018-08-17T03:34:09.798Z,212.02
2018-08-17T03:36:39.921Z,212.68
2018-08-17T03:39:11.230Z,211.62
2018-08-17T03:41:41.656Z,213.43
2018-08-17T03:44:11.879Z,215.47
2018-08-17T03:46:42.588Z,211.90
2018-08-17T03:49:13.278Z,214.90
2018-08-17T03:51:44.973Z,217.70
2018-08-17T03:54:16.161Z,219.25
2018-08-17T03:56:48.474Z,214.17
2018-08-17T03:59:18.856Z,211.55
2018-08-17T04:01:49.318Z,213.37
2018-08-17T04:04:19.655Z,221.55
2018-08-17T04:06:49.861Z,216.93
2018-08-17T04:09:20.302Z,213.45
2018-08-17T04:11:50.833Z,213.72
2018-08-17T04:14:21.748Z,217.35
2018-08-17T04:16:52.195Z,221.43
2018-08-17T04:19:22.770Z,216.40
2018-08-17T04:21:53.012Z,216.20
2018-08-17T04:24:23.238Z,216.85
2018-08-17T04:26:53.828Z,221.13
2018-08-17T04:29:24.257Z,218.52
2018-08-17T04:31:54.729Z,222.48
2018-08-17T04:34:25.277Z,214.65
2018-08-17T04:36:55.611Z,213.90
2018-08-17T04:39:25.888Z,215.05
2018-08-17T04:41:56.075Z,215.20
2018-08-17T04:44:26.360Z,217.20
2018-08-17T04:46:56.685Z,214.72
2018-08-17T04:49:27.119Z,214.23
2018-08-17T04:51:58.089Z,216.55
2018-08-17T04:54:28.363Z,212.93
2018-08-17T04:56:58.704Z,213.52
2018-08-17T04:59:28.960Z,211.50
2018-08-17T05:01:59.728Z,214.45
2018-08-17T05:04:30.671Z,221.18
2018-08-17T05:07:04.637Z,217.65
2018-08-17T05:09:35.606Z,215.77
2018-08-17T05:12:06.113Z,218.37
2018-08-17T05:14:36.341Z,219.20
2018-08-17T05:17:06.620Z,224.67
2018-08-17T05:19:36.991Z,218.88
2018-08-17T05:22:07.368Z,219.87
2018-08-17T05:24:37.553Z,223.07
2018-08-17T05:27:07.888Z,221.97
2018-08-17T05:29:38.175Z,221.47
2018-08-17T05:32:08.523Z,226.07
2018-08-17T05:34:38.783Z,221.82
2018-08-17T05:37:09.311Z,216.30
2018-08-17T05:39:40.324Z,223.32
2018-08-17T05:42:12.697Z,218.78
2018-08-17T05:44:43.312Z,227.30
2018-08-17T05:47:13.636Z,220.05
2018-08-17T05:49:43.764Z,218.82
2018-08-17T05:52:15.085Z,223.00
2018-08-17T05:54:46.051Z,219.28
2018-08-17T05:57:16.315Z,224.25
2018-08-17T05:59:47.397Z,220.45
2018-08-17T06:02:18.152Z,217.62
2018-08-17T06:04:53.030Z,225.35
2018-08-17T06:07:24.447Z,222.65
2018-08-17T06:09:55.834Z,221.13
2018-08-17T06:12:26.583Z,226.00
2018-08-17T06:14:56.836Z,228.18
2018-08-17T06:17:28.108Z,229.93
2018-08-17T06:19:59.620Z,229.57
2018-08-17T06:22:30.404Z,230.55
2018-08-17T06:25:03.496Z,237.75
2018-08-17T06:27:34.636Z,233.13
2018-08-17T06:30:10.124Z,229.93
2018-08-17T06:32:40.334Z,230.05
2018-08-17T06:35:11.676Z,225.72
2018-08-17T06:37:43.127Z,230.00
2018-08-17T06:40:16.451Z,230.07
2018-08-17T06:42:48.204Z,227.93
2018-08-17T06:45:18.486Z,232.45
2018-08-17T06:47:52.408Z,236.32
2018-08-17T06:50:24.452Z,233.32
2018-08-17T06:52:54.580Z,233.13
2018-08-17T06:55:25.299Z,233.60
2018-08-17T06:57:55.916Z,239.32
2018-08-17T07:00:27.092Z,242.37
2018-08-17T07:02:58.216Z,245.45
2018-08-17T07:05:29.112Z,245.40
2018-08-17T07:07:59.607Z,253.80
2018-08-17T07:10:30.922Z,243.75
2018-08-17T07:13:03.528Z,247.85
2018-08-17T07:15:37.394Z,260.05
2018-08-17T07:18:08.677Z,245.42
2018-08-17T07:20:41.741Z,250.20
2018-08-17T07:23:15.540Z,248.82
2018-08-17T07:26:32.861Z,247.95
2018-08-17T07:29:03.391Z,252.62
2018-08-17T07:31:33.617Z,254.70
2018-08-17T07:34:09.758Z,258.57
2018-08-17T07:36:40.093Z,271.18
2018-08-17T07:39:10.325Z,283.80
2018-08-17T07:41:41.757Z,286.75
2018-08-17T07:44:13.449Z,290.65
2018-08-17T07:46:43.960Z,310.90
2018-08-17T07:49:14.082Z,293.17
2018-08-17T07:51:45.208Z,310.68
2018-08-17T07:54:15.660Z,329.30
2018-08-17T07:56:47.592Z,305.98
2018-08-17T07:59:18.517Z,331.23
2018-08-17T08:01:48.662Z,316.93
2018-08-17T08:04:18.869Z,329.18
2018-08-17T08:06:49.336Z,314.85
2018-08-17T08:09:19.636Z,329.57
2018-08-17T08:11:49.771Z,321.00
2018-08-17T08:14:20.289Z,308.93
2018-08-17T08:16:52.189Z,313.18
2018-08-17T08:19:24.229Z,306.23
2018-08-17T08:21:55.429Z,319.95
2018-08-17T08:24:25.839Z,320.05
2018-08-17T08:26:56.036Z,301.32
2018-08-17T08:29:26.440Z,323.77
2018-08-17T08:31:56.725Z,338.43
2018-08-17T08:34:27.257Z,317.02
2018-08-17T08:36:58.672Z,328.15
2018-08-17T08:39:29.651Z,354.43
2018-08-17T08:42:00.059Z,352.60
2018-08-17T08:44:30.476Z,346.05
2018-08-17T08:47:00.800Z,317.85
2018-08-17T08:49:31.524Z,332.15
2018-08-17T08:52:03.627Z,306.20
2018-08-17T08:54:34.117Z,331.63
2018-08-17T08:57:08.314Z,341.75
2018-08-17T08:59:38.600Z,324.65
2018-08-17T09:02:11.345Z,352.25
2018-08-17T09:04:42.112Z,335.00
2018-08-17T09:07:13.988Z,346.10
2018-08-17T09:09:46.486Z,371.15
2018-08-17T09:12:17.618Z,367.00
2018-08-17T09:14:47.854Z,345.88
2018-08-17T09:17:17.953Z,340.77
2018-08-17T09:19:49.123Z,368.05
2018-08-17T09:22:21.263Z,355.37
2018-08-17T09:24:51.719Z,354.05
2018-08-17T09:27:22.848Z,368.85
2018-08-17T09:29:53.483Z,366.85
2018-08-17T09:32:24.612Z,370.73
2018-08-17T09:34:55.139Z,390.55
2018-08-17T09:37:25.496Z,339.10
2018-08-17T09:39:56.163Z,364.12
2018-08-17T09:42:26.686Z,326.25
2018-08-17T09:44:57.281Z,347.85
2018-08-17T09:47:27.607Z,341.98
2018-08-17T09:49:57.965Z,314.80
2018-08-17T09:52:28.194Z,323.00
2018-08-17T09:54:58.967Z,353.42
2018-08-17T09:57:29.529Z,329.30
2018-08-17T10:00:00.032Z,348.10
2018-08-17T10:02:35.289Z,337.93
2018-08-17T10:05:10.832Z,338.87
2018-08-17T10:07:46.978Z,341.73
2018-08-17T10:10:25.187Z,334.10
2018-08-17T10:12:55.585Z,386.10
2018-08-17T10:15:27.502Z,355.90
2018-08-17T10:17:58.019Z,365.20
2018-08-17T10:20:29.896Z,354.25
2018-08-17T10:23:00.384Z,344.77
2018-08-17T10:25:31.090Z,345.50
2018-08-17T10:28:02.672Z,347.27
2018-08-17T10:30:33.451Z,398.23
2018-08-17T10:33:04.261Z,377.98
2018-08-17T10:35:36.939Z,391.25
2018-08-17T10:38:09.217Z,357.62
2018-08-17T10:40:39.740Z,352.20
2018-08-17T10:43:11.060Z,345.97
2018-08-17T10:45:41.538Z,356.13
2018-08-17T10:48:11.937Z,350.18
2018-08-17T10:50:42.571Z,378.15
2018-08-17T10:53:12.781Z,357.02
2018-08-17T10:55:49.669Z,353.35
2018-08-17T10:58:20.561Z,355.73
2018-08-17T11:00:50.944Z,352.57
2018-08-17T11:03:21.244Z,378.95
2018-08-17T11:05:51.632Z,370.82
2018-08-17T11:08:21.997Z,361.73
2018-08-17T11:10:52.347Z,339.15
2018-08-17T11:13:22.832Z,370.95
2018-08-17T11:15:53.032Z,370.12
2018-08-17T11:18:23.707Z,368.37
2018-08-17T11:20:55.780Z,365.07
2018-08-17T11:23:26.396Z,369.40
2018-08-17T11:25:56.998Z,364.82
2018-08-17T11:28:27.220Z,353.15
2018-08-17T11:30:57.684Z,343.25
2018-08-17T11:33:29.607Z,340.00
2018-08-17T11:36:00.604Z,357.87
2018-08-17T11:38:31.003Z,397.02
2018-08-17T11:41:01.743Z,404.50
2018-08-17T11:43:32.280Z,404.38
2018-08-17T11:46:03.524Z,407.70
2018-08-17T11:48:35.638Z,356.38
2018-08-17T11:51:06.030Z,394.65
2018-08-17T11:53:36.239Z,371.98
2018-08-17T11:56:06.737Z,358.40
2018-08-17T11:58:37.044Z,348.23
2018-08-17T12:01:13.838Z,361.80
2018-08-17T12:03:44.566Z,345.10
2018-08-17T12:06:15.078Z,391.20
2018-08-17T12:08:45.656Z,376.92
2018-08-17T12:11:16.104Z,389.75
2018-08-17T12:13:46.702Z,397.63
2018-08-17T12:16:17.136Z,394.85
2018-08-17T12:18:48.169Z,414.52
2018-08-17T12:21:18.687Z,403.12
2018-08-17T18:54:59.294Z,320.48
2018-08-17T18:57:29.720Z,323.80
2018-08-17T19:00:00.100Z,324.75
2018-08-17T19:02:31.101Z,319.18
2018-08-17T19:05:02.552Z,335.27
2018-08-17T19:07:33.373Z,316.38
2018-08-17T19:10:04.663Z,333.77
2018-08-17T19:12:38.115Z,344.80
2018-08-17T19:15:11.146Z,323.32
2018-08-17T19:17:42.382Z,323.02
2018-08-17T19:20:14.946Z,318.48
2018-08-17T19:22:48.653Z,323.65
2018-08-17T19:25:24.679Z,308.45
2018-08-17T19:27:56.226Z,325.05
2018-08-17T19:30:31.762Z,304.60
2018-08-17T19:33:07.927Z,293.07
2018-08-17T19:35:41.272Z,312.60
2018-08-17T19:38:12.788Z,297.17
2018-08-17T19:40:44.465Z,314.25
2018-08-17T19:43:15.152Z,292.82
2018-08-17T19:45:46.183Z,308.15
2018-08-17T19:48:16.964Z,289.25
2018-08-17T19:50:48.830Z,292.10
2018-08-17T19:53:21.151Z,279.20
2018-08-17T19:55:51.899Z,276.02
2018-08-17T19:58:22.383Z,286.45
2018-08-17T20:00:52.941Z,277.70
2018-08-17T20:03:23.656Z,284.60
2018-08-17T20:05:53.967Z,288.02
2018-08-17T20:08:24.599Z,285.17
2018-08-17T20:10:56.109Z,284.55
2018-08-17T20:13:26.506Z,287.45
2018-08-17T20:15:57.553Z,287.88
2018-08-17T20:18:28.100Z,278.00
2018-08-17T20:20:58.813Z,269.00
2018-08-17T20:23:29.356Z,272.25
2018-08-17T20:26:00.108Z,273.80
2018-08-17T20:28:31.598Z,273.80
2018-08-17T20:31:02.140Z,291.23
2018-08-17T20:33:32.664Z,286.48
2018-08-17T20:36:03.327Z,287.15
2018-08-17T20:38:33.959Z,278.85
2018-08-17T20:41:04.502Z,293.25
2018-08-17T20:43:35.234Z,271.35
2018-08-17T20:46:06.165Z,276.62
2018-08-17T20:48:38.924Z,266.50
2018-08-17T20:51:10.774Z,269.93
2018-08-17T20:53:43.582Z,268.50
2018-08-17T20:56:14.288Z,272.25
2018-08-17T20:58:44.580Z,263.50
2018-08-17T21:01:14.931Z,271.07
2018-08-17T21:03:45.291Z,267.62
2018-08-17T21:06:16.391Z,259.50
2018-08-17T21:08:47.177Z,258.17
2018-08-17T21:11:17.922Z,261.95
2018-08-17T21:13:48.475Z,266.20
2018-08-17T21:16:23.440Z,268.88
2018-08-17T21:18:55.982Z,263.12
2018-08-17T21:21:26.413Z,256.05
2018-08-17T21:23:57.192Z,257.30
2018-08-17T21:26:28.142Z,269.37
2018-08-17T21:28:59.117Z,268.17
2018-08-17T21:31:31.082Z,285.93
2018-08-17T21:34:01.898Z,269.45
2018-08-17T21:36:32.213Z,263.60
2018-08-17T21:39:19.088Z,258.82
2018-08-17T21:41:50.067Z,257.80
2018-08-17T21:44:21.544Z,261.60
2018-08-17T21:46:56.935Z,274.60
2018-08-17T21:49:27.415Z,292.65
2018-08-17T21:52:00.493Z,297.70
2018-08-17T21:54:33.312Z,273.73
2018-08-17T21:57:04.810Z,272.93
2018-08-17T21:59:40.197Z,265.12
2018-08-17T22:02:11.914Z,277.27
2018-08-17T22:04:42.337Z,276.00
2018-08-17T22:07:20.047Z,293.12
2018-08-17T22:09:51.243Z,274.73
2018-08-17T22:12:21.780Z,295.23
2018-08-17T22:14:52.209Z,276.55
2018-08-17T22:17:35.526Z,304.68
2018-08-17T22:20:07.958Z,263.48
2018-08-17T22:22:39.111Z,278.58
2018-08-17T22:25:17.881Z,274.35
2018-08-17T22:27:51.485Z,269.93
2018-08-17T22:30:24.742Z,269.32
2018-08-17T22:32:56.391Z,270.95
2018-08-17T22:35:28.622Z,264.15
2018-08-17T22:38:00.180Z,270.35
2018-08-17T22:40:31.484Z,271.15
2018-08-17T22:43:02.406Z,269.90
2018-08-17T22:45:32.937Z,272.48
2018-08-17T22:48:04.115Z,272.55
2018-08-17T22:50:34.455Z,270.02
2018-08-17T22:53:05.546Z,280.83
2018-08-17T22:55:35.878Z,274.65
2018-08-17T22:58:07.955Z,277.93
2018-08-17T23:00:43.995Z,269.05
2018-08-17T23:03:14.270Z,261.92
2018-08-17T23:05:44.661Z,274.67
2018-08-17T23:08:14.870Z,269.02
2018-08-17T23:10:45.170Z,265.10
2018-08-17T23:13:15.682Z,240.50
2018-08-17T23:15:46.133Z,236.10
2018-08-17T23:18:16.471Z,245.90
2018-08-17T23:20:46.985Z,262.35
2018-08-17T23:23:17.230Z,265.07
2018-08-17T23:25:47.810Z,261.45
2018-08-17T23:28:18.147Z,256.70
2018-08-17T23:30:48.492Z,264.88
2018-08-17T23:33:18.754Z,263.30
2018-08-17T23:35:49.125Z,247.52
2018-08-17T23:38:19.478Z,268.10
2018-08-17T23:40:49.969Z,259.45
2018-08-17T23:43:20.437Z,254.15
2018-08-17T23:45:50.917Z,251.10
2018-08-17T23:48:21.171Z,261.70
2018-08-17T23:50:52.370Z,276.02
2018-08-17T23:53:22.791Z,267.05
2018-08-17T23:55:53.316Z,265.37
2018-08-17T23:58:23.539Z,256.52
